FOOL

Libreville

Airport
ICAO code
FOOL
Summary
ICAO Region
AFI
ICAO Territory
Location

Libreville,

Coordinates
0° 27' 21" N , 9° 24' 44" E
Metar
Observation
FOOL 060000Z 22005KT 9999 FEW008 27/24 Q1011 NOSIG
Station
Libreville
Date/Time
2023-02-06 00:00:00
Wind direction
220°
Wind speed
05 kts
Lowest cloud amount
few clouds
Temperature
27°C
Dew point
24°C
Humidity
83%
QNH
1011 hPa
Weather condition
n/a

Libreville Leon M'ba International Airport (IATA: LBV, ICAO: FOOL) is an airport situated in Libreville, Gabon. It is the main international airport in the country.

Runways

Designator Length Width Surface Rops
16/34 3000 45 ASP Yes/Yes

Airport map

Aerial View

SKYbrary Partners:

Safety knowledge contributed by: